createdAt,value
2019-04-23T00:04:11.718Z,15.40
2019-04-23T00:06:51.339Z,15.30
2019-04-23T00:09:21.184Z,15.30
2019-04-23T00:11:51.613Z,15.30
2019-04-23T00:14:27.360Z,15.30
2019-04-23T00:16:59.223Z,15.30
2019-04-23T00:19:26.169Z,15.20
2019-04-23T00:22:05.485Z,15.10
2019-04-23T00:29:57.636Z,15.00
2019-04-23T00:32:31.279Z,15.00
2019-04-23T00:35:00.734Z,15.00
2019-04-23T00:40:00.716Z,15.00
2019-04-23T00:42:38.513Z,14.90
2019-04-23T00:45:04.551Z,14.90
2019-04-23T00:47:38.528Z,14.80
2019-04-23T00:50:15.983Z,14.80
2019-04-23T00:52:42.177Z,14.70
2019-04-23T00:57:47.035Z,14.60
2019-04-23T01:02:53.151Z,14.60
2019-04-23T01:05:24.773Z,14.60
2019-04-23T01:07:58.539Z,14.50
2019-04-23T01:10:54.741Z,14.50
2019-04-23T01:15:52.562Z,14.50
2019-04-23T01:18:38.041Z,14.40
2019-04-23T01:20:53.739Z,14.40
2019-04-23T01:23:40.335Z,14.40
2019-04-23T01:26:26.378Z,14.40
2019-04-23T01:29:08.332Z,14.40
2019-04-23T01:31:46.061Z,14.30
2019-04-23T01:34:13.534Z,14.30
2019-04-23T01:36:40.211Z,14.20
2019-04-23T01:39:19.356Z,14.10
2019-04-23T01:41:57.332Z,14.20
2019-04-23T01:44:33.417Z,14.20
2019-04-23T01:49:37.270Z,14.10
2019-04-23T01:52:00.387Z,14.10
2019-04-23T01:54:42.341Z,14.00
2019-04-23T01:57:14.949Z,13.90
2019-04-23T01:59:38.666Z,13.90
2019-04-23T02:02:14.296Z,13.90
2019-04-23T02:04:46.023Z,13.90
2019-04-23T02:07:20.399Z,13.90
2019-04-23T02:09:51.584Z,13.90
2019-04-23T02:12:18.080Z,13.90
2019-04-23T02:17:21.969Z,13.80
2019-04-23T02:20:05.555Z,13.80
2019-04-23T02:25:40.813Z,13.80
2019-04-23T02:33:25.313Z,13.70
2019-04-23T02:35:50.032Z,13.60
2019-04-23T02:41:03.829Z,13.60
2019-04-23T02:43:16.068Z,13.60
2019-04-23T02:45:56.954Z,13.60
2019-04-23T02:48:40.586Z,13.60
2019-04-23T02:53:44.745Z,13.50
2019-04-23T03:01:14.850Z,13.40
2019-04-23T03:06:14.917Z,13.40
2019-04-23T03:08:41.622Z,13.40
2019-04-23T03:11:25.933Z,13.30
2019-04-23T03:18:53.866Z,13.30
2019-04-23T03:21:31.318Z,13.30
2019-04-23T03:24:38.954Z,13.30
2019-04-23T03:27:10.377Z,13.30
2019-04-23T03:39:50.444Z,13.20
2019-04-23T03:44:44.997Z,13.30
2019-04-23T03:47:13.847Z,13.30
2019-04-23T03:52:25.470Z,13.20
2019-04-23T03:54:49.241Z,13.20
2019-04-23T04:02:33.439Z,13.10
2019-04-23T04:04:44.606Z,13.10
2019-04-23T04:07:28.449Z,13.10
2019-04-23T04:09:53.856Z,13.10
2019-04-23T04:12:30.064Z,13.10
2019-04-23T04:17:27.614Z,13.10
2019-04-23T04:20:09.740Z,13.10
2019-04-23T04:25:19.279Z,13.10
2019-04-23T04:28:08.021Z,13.10
2019-04-23T04:30:10.768Z,13.10
2019-04-23T04:33:02.309Z,13.10
2019-04-23T04:37:57.921Z,13.10
2019-04-23T04:43:11.249Z,13.10
2019-04-23T04:50:24.254Z,13.00
2019-04-23T04:55:41.230Z,13.10
2019-04-23T05:08:13.467Z,13.20
2019-04-23T05:10:52.044Z,13.20
2019-04-23T05:19:09.602Z,13.20
2019-04-23T05:21:26.828Z,13.30
2019-04-23T05:24:01.211Z,13.40
2019-04-23T05:29:11.460Z,13.50
2019-04-23T05:31:59.320Z,13.50
2019-04-23T05:34:33.678Z,13.50
2019-04-23T05:37:04.949Z,13.40
2019-04-23T05:42:14.257Z,13.40
2019-04-23T05:44:43.178Z,13.50
2019-04-23T05:47:20.378Z,13.50
2019-04-23T05:52:24.482Z,13.70
2019-04-23T05:54:58.906Z,13.60
2019-04-23T05:57:27.147Z,13.70
2019-04-23T06:00:02.425Z,13.70
2019-04-23T06:02:37.343Z,13.80
2019-04-23T06:05:05.943Z,13.80
2019-04-23T06:07:38.917Z,13.80
2019-04-23T06:12:37.050Z,13.80
2019-04-23T06:15:11.538Z,13.90
2019-04-23T06:17:52.535Z,14.10
2019-04-23T06:20:18.185Z,14.20
2019-04-23T06:23:01.037Z,14.50
2019-04-23T06:25:40.813Z,14.90
2019-04-23T06:28:03.641Z,15.30
2019-04-23T06:30:46.783Z,15.80
2019-04-23T06:33:09.001Z,15.80
2019-04-23T06:35:39.519Z,16.20
2019-04-23T06:40:59.508Z,17.30
2019-04-23T06:43:47.182Z,17.70
2019-04-23T06:46:17.170Z,18.40
2019-04-23T06:48:40.870Z,18.30
2019-04-23T06:51:20.338Z,18.90
2019-04-23T06:53:43.099Z,19.70
2019-04-23T06:56:24.997Z,19.90
2019-04-23T06:58:50.528Z,20.20
2019-04-23T07:01:28.007Z,20.00
2019-04-23T07:04:03.085Z,19.10
2019-04-23T07:06:41.886Z,18.40
2019-04-23T07:09:10.593Z,18.20
2019-04-23T07:11:40.266Z,17.90
2019-04-23T07:13:58.749Z,17.80
2019-04-23T07:16:38.568Z,17.80
2019-04-23T07:19:18.568Z,17.70
2019-04-23T07:21:42.345Z,17.90
2019-04-23T07:26:49.470Z,17.60
2019-04-23T07:29:25.746Z,17.60
2019-04-23T07:34:28.282Z,17.70
2019-04-23T07:37:09.085Z,17.90
2019-04-23T07:40:24.503Z,18.60
2019-04-23T07:43:08.739Z,18.80
2019-04-23T07:46:10.557Z,19.30
2019-04-23T07:48:29.143Z,19.20
2019-04-23T07:51:14.973Z,19.30
2019-04-23T07:53:45.799Z,19.10
2019-04-23T07:56:13.098Z,19.20
2019-04-23T07:58:40.097Z,19.10
2019-04-23T08:01:18.059Z,19.20
2019-04-23T08:03:59.284Z,19.10
2019-04-23T08:06:21.699Z,19.30
2019-04-23T08:08:56.347Z,19.60
2019-04-23T08:16:42.475Z,21.00
2019-04-23T08:19:25.326Z,21.50
2019-04-23T08:21:40.330Z,21.40
2019-04-23T08:24:38.575Z,21.20
2019-04-23T08:27:10.068Z,21.40
2019-04-23T08:29:44.523Z,22.00
2019-04-23T08:37:34.714Z,23.80
2019-04-23T08:39:58.005Z,23.90
2019-04-23T08:42:36.416Z,24.10
2019-04-23T08:51:19.430Z,24.50
2019-04-23T08:55:53.670Z,23.30
2019-04-23T08:58:35.296Z,22.70
2019-04-23T09:01:05.489Z,22.00
2019-04-23T09:06:06.343Z,21.60
2019-04-23T09:08:39.405Z,21.30
2019-04-23T09:16:15.698Z,22.00
2019-04-23T09:18:46.062Z,22.50
2019-04-23T09:21:27.760Z,22.80
2019-04-23T09:24:04.357Z,22.80
2019-04-23T09:26:48.831Z,22.80
2019-04-23T09:29:19.162Z,22.90
2019-04-23T09:35:24.127Z,23.20
2019-04-23T09:38:10.158Z,23.40
2019-04-23T09:41:16.797Z,23.40
2019-04-23T09:44:39.181Z,23.80
2019-04-23T09:46:47.818Z,24.90
2019-04-23T09:49:22.614Z,25.30
2019-04-23T09:54:24.228Z,26.30
2019-04-23T09:56:52.267Z,27.20
2019-04-23T09:59:31.047Z,27.70
2019-04-23T10:01:57.293Z,28.50
2019-04-23T10:04:32.009Z,29.00
2019-04-23T10:07:05.495Z,28.80
2019-04-23T10:09:25.794Z,28.40
2019-04-23T10:11:58.854Z,27.20
2019-04-23T10:14:34.417Z,26.30
2019-04-23T10:17:06.440Z,25.60
2019-04-23T10:19:38.602Z,25.80
2019-04-23T10:22:09.207Z,25.90
2019-04-23T10:24:41.320Z,25.60
2019-04-23T10:27:14.904Z,25.60
2019-04-23T10:29:49.838Z,25.80
2019-04-23T10:32:25.448Z,25.90
2019-04-23T10:35:14.420Z,25.90
2019-04-23T10:37:45.007Z,26.20
2019-04-23T10:40:14.273Z,26.00
2019-04-23T10:42:46.016Z,26.20
2019-04-23T10:45:53.874Z,26.10
2019-04-23T10:49:00.772Z,25.40
2019-04-23T10:51:38.615Z,25.40
2019-04-23T10:54:24.889Z,26.10
2019-04-23T10:56:53.743Z,26.20
2019-04-23T10:59:35.468Z,26.60
2019-04-23T11:02:24.448Z,26.50
2019-04-23T11:07:26.262Z,27.10
2019-04-23T11:15:52.454Z,27.90
2019-04-23T11:17:53.514Z,28.30
2019-04-23T11:20:40.088Z,28.80
2019-04-23T11:23:22.432Z,28.60
2019-04-23T11:25:45.166Z,29.00
2019-04-23T11:28:20.455Z,28.70
2019-04-23T11:33:40.206Z,27.50
2019-04-23T11:38:55.475Z,27.10
2019-04-23T11:41:32.350Z,27.40
2019-04-23T11:43:55.040Z,27.30
2019-04-23T11:46:51.295Z,27.40
2019-04-23T11:49:39.221Z,27.30
2019-04-23T11:54:12.329Z,27.80
2019-04-23T11:59:31.863Z,27.50
2019-04-23T12:02:12.192Z,27.10
2019-04-23T12:05:21.629Z,26.70
2019-04-23T12:08:33.470Z,26.20
2019-04-23T12:13:45.178Z,25.80
2019-04-23T12:16:21.462Z,26.10
2019-04-23T12:19:25.390Z,25.70
2019-04-23T12:21:43.733Z,26.00
2019-04-23T12:24:38.202Z,26.00
2019-04-23T12:26:53.538Z,26.20
2019-04-23T12:29:27.343Z,26.30
2019-04-23T12:35:16.723Z,26.40
2019-04-23T12:38:04.105Z,25.60
2019-04-23T12:40:30.866Z,25.40
2019-04-23T12:45:48.486Z,25.90
2019-04-23T12:48:44.168Z,26.70
2019-04-23T12:50:58.775Z,27.10
2019-04-23T12:53:48.364Z,27.70
2019-04-23T12:56:48.085Z,27.80
2019-04-23T12:59:17.136Z,27.70
2019-04-23T13:01:49.300Z,27.30
2019-04-23T13:04:21.298Z,27.20
2019-04-23T13:06:50.992Z,27.50
2019-04-23T13:09:33.019Z,28.90
2019-04-23T13:12:06.201Z,29.00
2019-04-23T13:14:47.417Z,28.40
2019-04-23T13:19:56.061Z,29.50
2019-04-23T13:25:32.614Z,29.00
2019-04-23T13:33:24.046Z,27.00
2019-04-23T13:38:30.423Z,26.30
2019-04-23T13:41:01.096Z,26.20
2019-04-23T13:46:30.911Z,26.10
2019-04-23T13:48:49.364Z,26.10
2019-04-23T13:51:48.703Z,26.30
2019-04-23T13:54:16.889Z,26.10
2019-04-23T13:59:56.238Z,25.20
2019-04-23T14:02:40.507Z,24.50
2019-04-23T14:05:17.069Z,23.70
2019-04-23T14:07:54.147Z,23.70
2019-04-23T14:10:36.653Z,23.70
2019-04-23T14:13:28.862Z,23.60
2019-04-23T14:21:05.951Z,23.90
2019-04-23T14:24:00.438Z,23.90
2019-04-23T14:28:59.211Z,23.90
2019-04-23T14:31:37.324Z,23.80
2019-04-23T14:34:09.167Z,23.80
2019-04-23T14:37:04.275Z,23.90
2019-04-23T14:39:40.771Z,23.90
2019-04-23T14:45:09.795Z,23.90
2019-04-23T14:47:29.493Z,23.70
2019-04-23T14:50:22.943Z,23.70
2019-04-23T14:52:57.164Z,23.50
2019-04-23T14:58:00.592Z,23.30
2019-04-23T15:00:25.329Z,23.40
2019-04-23T15:03:08.828Z,23.50
2019-04-23T15:05:38.472Z,23.50
2019-04-23T15:08:15.003Z,23.20
2019-04-23T15:10:59.651Z,23.40
2019-04-23T15:13:22.752Z,23.30
2019-04-23T15:25:15.335Z,23.60
2019-04-23T15:28:02.017Z,23.50
2019-04-23T15:29:47.566Z,23.50
2019-04-23T15:33:00.504Z,23.30
2019-04-23T15:35:23.875Z,23.30
2019-04-23T15:38:10.434Z,23.10
2019-04-23T15:40:23.651Z,22.80
2019-04-23T15:43:07.616Z,22.80
2019-04-23T15:45:42.466Z,22.60
2019-04-23T15:48:15.959Z,22.60
2019-04-23T15:53:11.362Z,22.80
2019-04-23T15:56:11.735Z,22.70
2019-04-23T15:58:56.184Z,22.80
2019-04-23T16:03:24.456Z,22.80
2019-04-23T16:05:55.218Z,22.70
2019-04-23T16:14:16.758Z,22.70
2019-04-23T16:19:24.607Z,22.70
2019-04-23T16:22:00.509Z,22.60
2019-04-23T16:27:07.689Z,22.80
2019-04-23T16:29:46.901Z,22.80
2019-04-23T16:32:24.411Z,22.70
2019-04-23T16:35:03.255Z,22.60
2019-04-23T16:37:53.519Z,22.60
2019-04-23T16:40:19.285Z,22.50
2019-04-23T16:42:56.662Z,22.50
2019-04-23T16:45:23.008Z,22.50
2019-04-23T16:47:56.558Z,22.60
2019-04-23T16:50:32.736Z,22.60
2019-04-23T16:53:04.929Z,22.50
2019-04-23T16:55:38.354Z,22.30
2019-04-23T16:58:11.883Z,22.40
2019-04-23T17:03:18.118Z,22.30
2019-04-23T17:05:59.402Z,22.20
2019-04-23T17:16:16.706Z,21.90
2019-04-23T17:18:47.182Z,21.90
2019-04-23T17:21:18.652Z,21.80
2019-04-23T17:24:04.720Z,21.80
2019-04-23T17:26:29.123Z,21.80
2019-04-23T17:29:15.526Z,21.80
2019-04-23T17:31:45.380Z,21.80
2019-04-23T17:34:34.903Z,21.80
2019-04-23T17:37:21.745Z,21.70
2019-04-23T17:40:08.702Z,21.70
2019-04-23T17:42:56.744Z,21.70
2019-04-23T17:48:21.722Z,21.60
2019-04-23T17:53:25.311Z,21.50
2019-04-23T17:58:37.317Z,21.40
2019-04-23T18:01:22.194Z,21.40
2019-04-23T18:03:55.835Z,21.40
2019-04-23T18:09:20.793Z,21.30
2019-04-23T18:12:10.163Z,21.30
2019-04-23T18:14:31.112Z,21.30
2019-04-23T18:17:14.686Z,21.40
2019-04-23T18:20:05.244Z,21.40
2019-04-23T18:22:58.560Z,21.40
2019-04-23T18:25:31.183Z,21.40
2019-04-23T18:31:01.465Z,21.50
2019-04-23T18:36:10.686Z,21.50
2019-04-23T18:38:46.318Z,21.50
2019-04-23T18:41:17.477Z,21.40
2019-04-23T18:44:04.240Z,21.40
2019-04-23T18:46:36.600Z,21.40
2019-04-23T18:48:59.055Z,21.40
2019-04-23T18:51:41.850Z,21.40
2019-04-23T18:54:16.987Z,21.40
2019-04-23T18:57:06.569Z,21.40
2019-04-23T18:59:37.259Z,21.40
2019-04-23T19:02:35.508Z,21.40
2019-04-23T19:08:20.922Z,21.30
2019-04-23T19:11:19.011Z,21.40
2019-04-23T19:14:00.714Z,21.30
2019-04-23T19:19:54.974Z,21.40
2019-04-23T19:22:35.681Z,21.40
2019-04-23T19:24:48.333Z,21.30
2019-04-23T19:27:29.944Z,21.20
2019-04-23T19:30:08.906Z,21.20
2019-04-23T19:33:25.406Z,21.20
2019-04-23T19:42:36.554Z,21.00
2019-04-23T19:45:24.595Z,20.90
2019-04-23T19:47:47.855Z,21.00
2019-04-23T19:50:28.400Z,21.00
2019-04-23T19:55:24.199Z,21.00
2019-04-23T19:58:05.069Z,21.10
2019-04-23T20:00:47.962Z,21.00
2019-04-23T20:03:26.489Z,21.00
2019-04-23T20:05:57.317Z,21.00
2019-04-23T20:11:08.740Z,21.00
2019-04-23T20:18:50.537Z,20.90
2019-04-23T20:21:19.585Z,20.90
2019-04-23T20:24:08.563Z,20.90
2019-04-23T20:26:28.924Z,20.90
2019-04-23T20:29:33.821Z,20.90
2019-04-23T20:34:51.562Z,20.90
2019-04-23T20:37:03.204Z,20.90
2019-04-23T20:39:56.616Z,20.80
2019-04-23T20:42:39.047Z,20.80
2019-04-23T20:47:24.411Z,20.80
2019-04-23T20:49:56.818Z,20.80
2019-04-23T20:52:29.215Z,20.80
2019-04-23T20:55:08.351Z,20.70
2019-04-23T20:57:48.483Z,20.70
2019-04-23T21:00:35.856Z,20.60
2019-04-23T21:05:32.996Z,20.60
2019-04-23T21:08:33.278Z,20.50
2019-04-23T21:10:56.764Z,20.50
2019-04-23T21:13:47.404Z,20.30
2019-04-23T21:15:58.274Z,20.20
2019-04-23T21:21:13.273Z,20.20
2019-04-23T21:24:04.021Z,20.10
2019-04-23T21:26:46.189Z,20.10
2019-04-23T21:29:17.619Z,20.10
2019-04-23T21:31:53.863Z,20.00
2019-04-23T21:34:24.947Z,19.90
2019-04-23T21:37:11.063Z,19.80
2019-04-23T21:40:19.160Z,19.70
2019-04-23T21:42:55.892Z,19.60
2019-04-23T21:45:26.237Z,19.50
2019-04-23T21:48:00.646Z,19.50
2019-04-23T21:50:39.778Z,19.50
2019-04-23T21:52:58.175Z,19.40
2019-04-23T21:55:48.546Z,19.30
2019-04-23T21:58:36.099Z,19.20
2019-04-23T22:11:56.935Z,19.50
2019-04-23T22:14:27.559Z,19.40
2019-04-23T22:17:06.169Z,19.40
2019-04-23T22:19:42.203Z,19.20
2019-04-23T22:22:05.215Z,19.10
2019-04-23T22:24:59.206Z,19.00
2019-04-23T22:27:16.508Z,18.80
2019-04-23T22:30:04.177Z,18.80
2019-04-23T22:32:56.158Z,18.80
2019-04-23T22:35:10.715Z,18.70
2019-04-23T22:38:02.383Z,18.80
2019-04-23T22:40:25.834Z,18.80
2019-04-23T22:45:37.925Z,18.90
2019-04-23T22:48:11.122Z,18.90
2019-04-23T22:53:11.112Z,18.90
2019-04-23T22:55:57.061Z,19.10
2019-04-23T22:58:23.685Z,19.20
2019-04-23T23:01:19.717Z,19.30
2019-04-23T23:04:13.402Z,19.20
2019-04-23T23:11:54.652Z,19.00
2019-04-23T23:17:05.014Z,19.00
2019-04-23T23:22:22.144Z,18.90
2019-04-23T23:25:16.265Z,18.80
2019-04-23T23:27:41.322Z,18.70
2019-04-23T23:40:28.504Z,18.50
2019-04-23T23:43:17.925Z,18.50
2019-04-23T23:45:46.717Z,18.50
2019-04-23T23:48:18.601Z,18.50
2019-04-23T23:51:17.099Z,18.40
2019-04-23T23:53:42.860Z,18.40
2019-04-23T23:56:11.239Z,18.40
